sensor_id;sensor_type;location;lat;lon;timestamp;P1;durP1;ratioP1;P2;durP2;ratioP2
64932;SDS011;51446;53.850;10.662;2023-06-24T00:02:08;8.80;;;6.20;;
64932;SDS011;51446;53.850;10.662;2023-06-24T00:04:33;8.50;;;6.70;;
64932;SDS011;51446;53.850;10.662;2023-06-24T00:06:59;11.90;;;6.53;;
64932;SDS011;51446;53.850;10.662;2023-06-24T00:09:28;9.85;;;6.25;;
64932;SDS011;51446;53.850;10.662;2023-06-24T00:11:55;9.02;;;6.72;;
64932;SDS011;51446;53.850;10.662;2023-06-24T00:14:21;9.25;;;7.43;;
64932;SDS011;51446;53.850;10.662;2023-06-24T00:16:48;10.50;;;7.03;;
64932;SDS011;51446;53.850;10.662;2023-06-24T00:19:17;9.52;;;6.75;;
64932;SDS011;51446;53.850;10.662;2023-06-24T00:21:44;11.27;;;6.85;;
64932;SDS011;51446;53.850;10.662;2023-06-24T00:24:09;8.50;;;6.27;;
64932;SDS011;51446;53.850;10.662;2023-06-24T00:26:34;7.17;;;5.93;;
64932;SDS011;51446;53.850;10.662;2023-06-24T00:29:00;15.00;;;6.97;;
64932;SDS011;51446;53.850;10.662;2023-06-24T00:31:25;9.40;;;5.57;;
64932;SDS011;51446;53.850;10.662;2023-06-24T00:33:50;10.23;;;5.90;;
64932;SDS011;51446;53.850;10.662;2023-06-24T00:36:17;6.72;;;5.90;;
64932;SDS011;51446;53.850;10.662;2023-06-24T00:38:42;8.27;;;5.77;;
64932;SDS011;51446;53.850;10.662;2023-06-24T00:41:07;8.33;;;5.53;;
64932;SDS011;51446;53.850;10.662;2023-06-24T00:43:33;7.45;;;4.97;;
64932;SDS011;51446;53.850;10.662;2023-06-24T00:45:58;8.90;;;5.80;;
64932;SDS011;51446;53.850;10.662;2023-06-24T00:48:24;7.43;;;5.43;;
64932;SDS011;51446;53.850;10.662;2023-06-24T00:50:49;7.90;;;5.43;;
64932;SDS011;51446;53.850;10.662;2023-06-24T00:53:18;6.72;;;5.45;;
64932;SDS011;51446;53.850;10.662;2023-06-24T00:55:44;9.77;;;5.97;;
64932;SDS011;51446;53.850;10.662;2023-06-24T00:58:10;8.60;;;6.00;;
64932;SDS011;51446;53.850;10.662;2023-06-24T01:03:16;8.50;;;6.00;;
64932;SDS011;51446;53.850;10.662;2023-06-24T01:05:41;8.30;;;5.67;;
64932;SDS011;51446;53.850;10.662;2023-06-24T01:08:09;9.07;;;5.70;;
64932;SDS011;51446;53.850;10.662;2023-06-24T01:10:40;7.20;;;5.80;;
64932;SDS011;51446;53.850;10.662;2023-06-24T01:13:05;7.73;;;6.07;;
64932;SDS011;51446;53.850;10.662;2023-06-24T01:15:31;7.67;;;5.60;;
64932;SDS011;51446;53.850;10.662;2023-06-24T01:17:57;8.30;;;6.13;;
64932;SDS011;51446;53.850;10.662;2023-06-24T01:20:32;12.10;;;6.20;;
64932;SDS011;51446;53.850;10.662;2023-06-24T01:23:48;8.52;;;6.70;;
64932;SDS011;51446;53.850;10.662;2023-06-24T01:34:32;11.13;;;6.50;;
64932;SDS011;51446;53.850;10.662;2023-06-24T01:37:05;7.32;;;6.07;;
64932;SDS011;51446;53.850;10.662;2023-06-24T01:39:37;9.53;;;6.10;;
64932;SDS011;51446;53.850;10.662;2023-06-24T01:42:11;7.35;;;6.18;;
64932;SDS011;51446;53.850;10.662;2023-06-24T01:44:39;10.23;;;5.93;;
64932;SDS011;51446;53.850;10.662;2023-06-24T01:47:08;9.73;;;6.70;;
64932;SDS011;51446;53.850;10.662;2023-06-24T01:49:37;9.95;;;7.25;;
64932;SDS011;51446;53.850;10.662;2023-06-24T01:52:05;11.47;;;6.47;;
64932;SDS011;51446;53.850;10.662;2023-06-24T01:54:35;10.18;;;6.65;;
64932;SDS011;51446;53.850;10.662;2023-06-24T01:57:03;8.55;;;6.35;;
64932;SDS011;51446;53.850;10.662;2023-06-24T01:59:32;9.02;;;5.85;;
64932;SDS011;51446;53.850;10.662;2023-06-24T02:01:58;8.63;;;6.47;;
64932;SDS011;51446;53.850;10.662;2023-06-24T02:04:26;8.53;;;5.97;;
64932;SDS011;51446;53.850;10.662;2023-06-24T02:06:56;8.93;;;5.55;;
64932;SDS011;51446;53.850;10.662;2023-06-24T02:09:25;8.73;;;6.18;;
64932;SDS011;51446;53.850;10.662;2023-06-24T02:11:53;10.30;;;5.53;;
64932;SDS011;51446;53.850;10.662;2023-06-24T02:14:19;7.95;;;6.00;;
64932;SDS011;51446;53.850;10.662;2023-06-24T02:16:45;10.07;;;6.70;;
64932;SDS011;51446;53.850;10.662;2023-06-24T02:19:12;10.18;;;6.30;;
64932;SDS011;51446;53.850;10.662;2023-06-24T02:21:39;9.47;;;6.57;;
64932;SDS011;51446;53.850;10.662;2023-06-24T02:24:06;10.93;;;6.72;;
64932;SDS011;51446;53.850;10.662;2023-06-24T02:26:32;9.48;;;6.05;;
64932;SDS011;51446;53.850;10.662;2023-06-24T02:29:00;10.55;;;6.18;;
64932;SDS011;51446;53.850;10.662;2023-06-24T02:31:25;10.97;;;6.47;;
64932;SDS011;51446;53.850;10.662;2023-06-24T02:33:50;10.30;;;6.00;;
64932;SDS011;51446;53.850;10.662;2023-06-24T02:36:16;9.27;;;6.20;;
64932;SDS011;51446;53.850;10.662;2023-06-24T02:38:41;10.30;;;5.90;;
64932;SDS011;51446;53.850;10.662;2023-06-24T02:41:06;13.50;;;6.23;;
64932;SDS011;51446;53.850;10.662;2023-06-24T02:43:32;10.67;;;6.57;;
64932;SDS011;51446;53.850;10.662;2023-06-24T02:45:59;8.38;;;5.50;;
64932;SDS011;51446;53.850;10.662;2023-06-24T02:48:26;10.40;;;6.28;;
64932;SDS011;51446;53.850;10.662;2023-06-24T02:50:55;9.50;;;6.30;;
64932;SDS011;51446;53.850;10.662;2023-06-24T02:53:22;10.38;;;6.13;;
64932;SDS011;51446;53.850;10.662;2023-06-24T02:55:47;9.27;;;6.50;;
64932;SDS011;51446;53.850;10.662;2023-06-24T02:58:14;8.32;;;6.15;;
64932;SDS011;51446;53.850;10.662;2023-06-24T03:00:40;11.63;;;6.20;;
64932;SDS011;51446;53.850;10.662;2023-06-24T03:03:05;9.87;;;5.90;;
64932;SDS011;51446;53.850;10.662;2023-06-24T03:05:31;8.30;;;5.63;;
64932;SDS011;51446;53.850;10.662;2023-06-24T03:07:58;9.15;;;6.60;;
64932;SDS011;51446;53.850;10.662;2023-06-24T03:10:26;10.27;;;5.97;;
64932;SDS011;51446;53.850;10.662;2023-06-24T03:12:52;10.27;;;6.47;;
64932;SDS011;51446;53.850;10.662;2023-06-24T03:15:17;10.37;;;7.03;;
64932;SDS011;51446;53.850;10.662;2023-06-24T03:17:42;10.27;;;7.00;;
64932;SDS011;51446;53.850;10.662;2023-06-24T03:20:08;12.07;;;7.57;;
64932;SDS011;51446;53.850;10.662;2023-06-24T03:22:34;10.37;;;7.07;;
64932;SDS011;51446;53.850;10.662;2023-06-24T03:24:59;12.98;;;7.32;;
64932;SDS011;51446;53.850;10.662;2023-06-24T03:27:25;10.67;;;6.50;;
64932;SDS011;51446;53.850;10.662;2023-06-24T03:29:50;7.40;;;6.03;;
64932;SDS011;51446;53.850;10.662;2023-06-24T03:32:15;15.13;;;6.53;;
64932;SDS011;51446;53.850;10.662;2023-06-24T03:34:41;12.97;;;7.50;;
64932;SDS011;51446;53.850;10.662;2023-06-24T03:37:06;14.27;;;6.97;;
64932;SDS011;51446;53.850;10.662;2023-06-24T03:39:32;11.37;;;7.00;;
64932;SDS011;51446;53.850;10.662;2023-06-24T03:41:57;7.15;;;5.40;;
64932;SDS011;51446;53.850;10.662;2023-06-24T03:44:22;8.10;;;5.70;;
64932;SDS011;51446;53.850;10.662;2023-06-24T03:46:48;9.83;;;6.60;;
64932;SDS011;51446;53.850;10.662;2023-06-24T03:49:13;12.13;;;6.60;;
64932;SDS011;51446;53.850;10.662;2023-06-24T03:51:38;13.83;;;7.30;;
64932;SDS011;51446;53.850;10.662;2023-06-24T03:54:04;7.47;;;5.67;;
64932;SDS011;51446;53.850;10.662;2023-06-24T03:56:29;9.43;;;5.88;;
64932;SDS011;51446;53.850;10.662;2023-06-24T03:58:55;9.33;;;6.33;;
64932;SDS011;51446;53.850;10.662;2023-06-24T04:01:20;11.37;;;6.50;;
64932;SDS011;51446;53.850;10.662;2023-06-24T04:03:45;10.37;;;6.87;;
64932;SDS011;51446;53.850;10.662;2023-06-24T04:06:11;10.57;;;7.70;;
64932;SDS011;51446;53.850;10.662;2023-06-24T04:08:36;13.20;;;7.37;;
64932;SDS011;51446;53.850;10.662;2023-06-24T04:11:05;10.10;;;7.10;;
64932;SDS011;51446;53.850;10.662;2023-06-24T04:13:31;11.82;;;7.20;;
64932;SDS011;51446;53.850;10.662;2023-06-24T04:15:57;11.10;;;6.55;;
64932;SDS011;51446;53.850;10.662;2023-06-24T04:18:22;8.90;;;7.17;;
64932;SDS011;51446;53.850;10.662;2023-06-24T04:20:47;9.37;;;6.03;;
64932;SDS011;51446;53.850;10.662;2023-06-24T04:23:13;10.00;;;7.07;;
64932;SDS011;51446;53.850;10.662;2023-06-24T04:25:39;12.10;;;7.05;;
64932;SDS011;51446;53.850;10.662;2023-06-24T04:28:05;9.52;;;6.38;;
64932;SDS011;51446;53.850;10.662;2023-06-24T04:30:31;13.67;;;7.00;;
64932;SDS011;51446;53.850;10.662;2023-06-24T04:32:56;11.70;;;6.77;;
64932;SDS011;51446;53.850;10.662;2023-06-24T04:35:21;10.43;;;6.53;;
64932;SDS011;51446;53.850;10.662;2023-06-24T04:37:47;17.02;;;7.07;;
64932;SDS011;51446;53.850;10.662;2023-06-24T04:40:14;10.48;;;6.70;;
64932;SDS011;51446;53.850;10.662;2023-06-24T04:42:40;12.67;;;7.60;;
64932;SDS011;51446;53.850;10.662;2023-06-24T04:45:05;15.50;;;7.47;;
64932;SDS011;51446;53.850;10.662;2023-06-24T04:47:31;15.00;;;6.97;;
64932;SDS011;51446;53.850;10.662;2023-06-24T04:49:56;9.43;;;6.37;;
64932;SDS011;51446;53.850;10.662;2023-06-24T04:52:23;10.17;;;5.87;;
64932;SDS011;51446;53.850;10.662;2023-06-24T04:54:48;11.45;;;6.63;;
64932;SDS011;51446;53.850;10.662;2023-06-24T04:57:25;13.00;;;6.67;;
64932;SDS011;51446;53.850;10.662;2023-06-24T04:59:52;13.55;;;9.00;;
64932;SDS011;51446;53.850;10.662;2023-06-24T05:02:17;15.23;;;10.37;;
64932;SDS011;51446;53.850;10.662;2023-06-24T05:04:43;19.83;;;11.97;;
64932;SDS011;51446;53.850;10.662;2023-06-24T05:07:08;20.05;;;12.90;;
64932;SDS011;51446;53.850;10.662;2023-06-24T05:09:33;20.53;;;11.47;;
64932;SDS011;51446;53.850;10.662;2023-06-24T05:12:02;20.03;;;10.83;;
64932;SDS011;51446;53.850;10.662;2023-06-24T05:14:28;17.27;;;10.50;;
64932;SDS011;51446;53.850;10.662;2023-06-24T05:16:53;21.27;;;11.73;;
64932;SDS011;51446;53.850;10.662;2023-06-24T05:19:19;17.47;;;10.60;;
64932;SDS011;51446;53.850;10.662;2023-06-24T05:21:44;15.17;;;9.03;;
64932;SDS011;51446;53.850;10.662;2023-06-24T05:24:09;17.60;;;10.20;;
64932;SDS011;51446;53.850;10.662;2023-06-24T05:26:34;18.90;;;11.23;;
64932;SDS011;51446;53.850;10.662;2023-06-24T05:29:00;16.80;;;9.83;;
64932;SDS011;51446;53.850;10.662;2023-06-24T05:31:25;21.40;;;10.77;;
64932;SDS011;51446;53.850;10.662;2023-06-24T05:33:50;16.37;;;10.70;;
64932;SDS011;51446;53.850;10.662;2023-06-24T05:36:15;17.10;;;11.37;;
64932;SDS011;51446;53.850;10.662;2023-06-24T05:38:40;15.97;;;10.30;;
64932;SDS011;51446;53.850;10.662;2023-06-24T05:41:06;15.40;;;9.10;;
64932;SDS011;51446;53.850;10.662;2023-06-24T05:43:31;16.77;;;10.00;;
64932;SDS011;51446;53.850;10.662;2023-06-24T05:45:56;14.33;;;9.03;;
64932;SDS011;51446;53.850;10.662;2023-06-24T05:48:21;16.23;;;8.63;;
64932;SDS011;51446;53.850;10.662;2023-06-24T05:50:47;16.03;;;8.37;;
64932;SDS011;51446;53.850;10.662;2023-06-24T05:53:12;13.30;;;7.77;;
64932;SDS011;51446;53.850;10.662;2023-06-24T05:55:37;12.47;;;7.00;;
64932;SDS011;51446;53.850;10.662;2023-06-24T05:58:02;13.07;;;7.47;;
64932;SDS011;51446;53.850;10.662;2023-06-24T06:00:28;13.53;;;7.60;;
64932;SDS011;51446;53.850;10.662;2023-06-24T06:02:53;12.10;;;7.20;;
64932;SDS011;51446;53.850;10.662;2023-06-24T06:05:18;11.17;;;7.70;;
64932;SDS011;51446;53.850;10.662;2023-06-24T06:07:43;10.73;;;6.13;;
64932;SDS011;51446;53.850;10.662;2023-06-24T06:10:09;9.13;;;6.27;;
64932;SDS011;51446;53.850;10.662;2023-06-24T06:12:35;9.87;;;6.37;;
64932;SDS011;51446;53.850;10.662;2023-06-24T06:15:00;12.23;;;5.70;;
64932;SDS011;51446;53.850;10.662;2023-06-24T06:17:26;13.47;;;5.67;;
64932;SDS011;51446;53.850;10.662;2023-06-24T06:19:51;10.60;;;6.10;;
64932;SDS011;51446;53.850;10.662;2023-06-24T06:22:16;7.63;;;4.73;;
64932;SDS011;51446;53.850;10.662;2023-06-24T06:24:42;10.97;;;4.57;;
64932;SDS011;51446;53.850;10.662;2023-06-24T06:27:11;10.50;;;5.50;;
64932;SDS011;51446;53.850;10.662;2023-06-24T06:29:39;12.70;;;6.13;;
64932;SDS011;51446;53.850;10.662;2023-06-24T06:32:05;8.73;;;5.50;;
64932;SDS011;51446;53.850;10.662;2023-06-24T06:34:31;10.93;;;5.57;;
64932;SDS011;51446;53.850;10.662;2023-06-24T06:36:56;11.83;;;5.20;;
64932;SDS011;51446;53.850;10.662;2023-06-24T06:39:21;9.07;;;5.13;;
64932;SDS011;51446;53.850;10.662;2023-06-24T06:41:46;9.03;;;4.40;;
64932;SDS011;51446;53.850;10.662;2023-06-24T06:44:11;8.93;;;4.40;;
64932;SDS011;51446;53.850;10.662;2023-06-24T06:46:37;7.50;;;4.70;;
64932;SDS011;51446;53.850;10.662;2023-06-24T06:49:02;8.38;;;4.90;;
64932;SDS011;51446;53.850;10.662;2023-06-24T06:51:27;5.60;;;4.10;;
64932;SDS011;51446;53.850;10.662;2023-06-24T06:53:53;9.57;;;4.40;;
64932;SDS011;51446;53.850;10.662;2023-06-24T06:56:18;8.23;;;3.90;;
64932;SDS011;51446;53.850;10.662;2023-06-24T06:58:47;7.87;;;3.90;;
64932;SDS011;51446;53.850;10.662;2023-06-24T07:01:12;10.53;;;4.00;;
64932;SDS011;51446;53.850;10.662;2023-06-24T07:03:37;8.93;;;3.67;;
64932;SDS011;51446;53.850;10.662;2023-06-24T07:06:02;11.17;;;3.83;;
64932;SDS011;51446;53.850;10.662;2023-06-24T07:08:28;9.07;;;3.73;;
64932;SDS011;51446;53.850;10.662;2023-06-24T07:10:53;6.90;;;3.97;;
64932;SDS011;51446;53.850;10.662;2023-06-24T07:13:18;6.50;;;3.47;;
64932;SDS011;51446;53.850;10.662;2023-06-24T07:15:43;7.07;;;3.50;;
64932;SDS011;51446;53.850;10.662;2023-06-24T07:18:09;8.10;;;3.67;;
64932;SDS011;51446;53.850;10.662;2023-06-24T07:20:34;12.50;;;3.47;;
64932;SDS011;51446;53.850;10.662;2023-06-24T07:22:59;5.50;;;3.10;;
64932;SDS011;51446;53.850;10.662;2023-06-24T07:25:24;6.17;;;3.30;;
64932;SDS011;51446;53.850;10.662;2023-06-24T07:27:51;6.40;;;3.50;;
64932;SDS011;51446;53.850;10.662;2023-06-24T07:30:16;7.23;;;3.40;;
64932;SDS011;51446;53.850;10.662;2023-06-24T07:32:41;4.37;;;3.33;;
64932;SDS011;51446;53.850;10.662;2023-06-24T07:35:07;7.70;;;3.00;;
64932;SDS011;51446;53.850;10.662;2023-06-24T07:37:33;6.65;;;3.10;;
64932;SDS011;51446;53.850;10.662;2023-06-24T07:39:59;7.17;;;2.90;;
64932;SDS011;51446;53.850;10.662;2023-06-24T07:42:24;4.60;;;3.13;;
64932;SDS011;51446;53.850;10.662;2023-06-24T07:44:50;6.10;;;3.10;;
64932;SDS011;51446;53.850;10.662;2023-06-24T07:47:16;5.57;;;2.73;;
64932;SDS011;51446;53.850;10.662;2023-06-24T07:49:43;5.00;;;2.70;;
64932;SDS011;51446;53.850;10.662;2023-06-24T07:52:08;6.47;;;2.77;;
64932;SDS011;51446;53.850;10.662;2023-06-24T07:54:34;5.67;;;2.43;;
64932;SDS011;51446;53.850;10.662;2023-06-24T07:56:59;5.87;;;2.73;;
64932;SDS011;51446;53.850;10.662;2023-06-24T07:59:24;5.10;;;2.40;;
64932;SDS011;51446;53.850;10.662;2023-06-24T08:01:50;7.03;;;2.90;;
64932;SDS011;51446;53.850;10.662;2023-06-24T08:04:15;6.70;;;3.07;;
64932;SDS011;51446;53.850;10.662;2023-06-24T08:06:41;3.93;;;2.40;;
64932;SDS011;51446;53.850;10.662;2023-06-24T08:09:06;5.47;;;2.50;;
64932;SDS011;51446;53.850;10.662;2023-06-24T08:11:32;4.77;;;2.50;;
64932;SDS011;51446;53.850;10.662;2023-06-24T08:13:58;5.67;;;1.83;;
64932;SDS011;51446;53.850;10.662;2023-06-24T08:16:23;6.43;;;2.93;;
64932;SDS011;51446;53.850;10.662;2023-06-24T08:18:48;4.30;;;2.70;;
64932;SDS011;51446;53.850;10.662;2023-06-24T08:21:13;6.37;;;2.67;;
64932;SDS011;51446;53.850;10.662;2023-06-24T08:23:39;4.73;;;1.90;;
64932;SDS011;51446;53.850;10.662;2023-06-24T08:26:05;6.45;;;2.20;;
64932;SDS011;51446;53.850;10.662;2023-06-24T08:28:31;5.77;;;2.47;;
64932;SDS011;51446;53.850;10.662;2023-06-24T08:30:56;6.87;;;2.70;;
64932;SDS011;51446;53.850;10.662;2023-06-24T08:33:21;5.53;;;2.50;;
64932;SDS011;51446;53.850;10.662;2023-06-24T08:35:46;4.83;;;2.60;;
64932;SDS011;51446;53.850;10.662;2023-06-24T08:38:12;4.10;;;2.20;;
64932;SDS011;51446;53.850;10.662;2023-06-24T08:40:37;3.33;;;2.33;;
64932;SDS011;51446;53.850;10.662;2023-06-24T08:43:05;4.78;;;2.53;;
64932;SDS011;51446;53.850;10.662;2023-06-24T08:45:31;2.60;;;2.20;;
64932;SDS011;51446;53.850;10.662;2023-06-24T08:47:56;5.60;;;2.42;;
64932;SDS011;51446;53.850;10.662;2023-06-24T08:50:23;5.63;;;2.40;;
64932;SDS011;51446;53.850;10.662;2023-06-24T08:52:54;6.40;;;2.50;;
64932;SDS011;51446;53.850;10.662;2023-06-24T08:55:22;6.47;;;2.42;;
64932;SDS011;51446;53.850;10.662;2023-06-24T08:57:48;6.80;;;2.40;;
64932;SDS011;51446;53.850;10.662;2023-06-24T09:00:13;5.30;;;2.43;;
64932;SDS011;51446;53.850;10.662;2023-06-24T09:02:39;5.25;;;2.78;;
64932;SDS011;51446;53.850;10.662;2023-06-24T09:05:08;3.23;;;2.60;;
64932;SDS011;51446;53.850;10.662;2023-06-24T09:07:33;4.28;;;2.20;;
64932;SDS011;51446;53.850;10.662;2023-06-24T09:09:59;4.30;;;2.37;;
64932;SDS011;51446;53.850;10.662;2023-06-24T09:12:25;7.03;;;2.80;;
64932;SDS011;51446;53.850;10.662;2023-06-24T09:14:51;3.38;;;2.00;;
64932;SDS011;51446;53.850;10.662;2023-06-24T09:17:18;3.43;;;2.27;;
64932;SDS011;51446;53.850;10.662;2023-06-24T09:19:47;3.47;;;2.03;;
64932;SDS011;51446;53.850;10.662;2023-06-24T09:22:12;5.22;;;2.50;;
64932;SDS011;51446;53.850;10.662;2023-06-24T09:24:42;2.83;;;2.07;;
64932;SDS011;51446;53.850;10.662;2023-06-24T09:27:10;4.07;;;2.05;;
64932;SDS011;51446;53.850;10.662;2023-06-24T09:29:37;4.85;;;2.05;;
64932;SDS011;51446;53.850;10.662;2023-06-24T09:32:06;5.17;;;2.20;;
64932;SDS011;51446;53.850;10.662;2023-06-24T09:34:31;6.40;;;2.35;;
64932;SDS011;51446;53.850;10.662;2023-06-24T09:36:57;4.63;;;2.50;;
64932;SDS011;51446;53.850;10.662;2023-06-24T09:39:24;8.32;;;4.85;;
64932;SDS011;51446;53.850;10.662;2023-06-24T09:41:54;4.53;;;2.45;;
64932;SDS011;51446;53.850;10.662;2023-06-24T09:44:23;4.03;;;1.90;;
64932;SDS011;51446;53.850;10.662;2023-06-24T09:46:49;4.35;;;2.30;;
64932;SDS011;51446;53.850;10.662;2023-06-24T09:49:15;3.97;;;1.80;;
64932;SDS011;51446;53.850;10.662;2023-06-24T09:51:42;3.80;;;1.97;;
64932;SDS011;51446;53.850;10.662;2023-06-24T09:54:10;3.13;;;1.80;;
64932;SDS011;51446;53.850;10.662;2023-06-24T09:56:37;2.67;;;1.83;;
64932;SDS011;51446;53.850;10.662;2023-06-24T09:59:05;4.75;;;2.15;;
64932;SDS011;51446;53.850;10.662;2023-06-24T10:01:31;4.30;;;2.05;;
64932;SDS011;51446;53.850;10.662;2023-06-24T10:04:00;5.53;;;2.50;;
64932;SDS011;51446;53.850;10.662;2023-06-24T10:06:26;3.05;;;2.00;;
64932;SDS011;51446;53.850;10.662;2023-06-24T10:08:52;4.53;;;2.00;;
64932;SDS011;51446;53.850;10.662;2023-06-24T10:11:18;3.88;;;1.90;;
64932;SDS011;51446;53.850;10.662;2023-06-24T10:13:43;3.30;;;1.70;;
64932;SDS011;51446;53.850;10.662;2023-06-24T10:16:09;2.80;;;1.77;;
64932;SDS011;51446;53.850;10.662;2023-06-24T10:18:35;3.10;;;1.93;;
64932;SDS011;51446;53.850;10.662;2023-06-24T10:21:02;4.83;;;2.07;;
64932;SDS011;51446;53.850;10.662;2023-06-24T10:26:29;3.67;;;1.70;;
64932;SDS011;51446;53.850;10.662;2023-06-24T10:39:37;3.85;;;2.30;;
64932;SDS011;51446;53.850;10.662;2023-06-24T10:44:47;3.30;;;2.35;;
64932;SDS011;51446;53.850;10.662;2023-06-24T10:47:13;4.30;;;2.50;;
64932;SDS011;51446;53.850;10.662;2023-06-24T10:49:38;5.00;;;2.20;;
64932;SDS011;51446;53.850;10.662;2023-06-24T10:52:03;3.53;;;1.90;;
64932;SDS011;51446;53.850;10.662;2023-06-24T10:54:29;3.37;;;2.00;;
64932;SDS011;51446;53.850;10.662;2023-06-24T10:56:55;3.75;;;2.00;;
64932;SDS011;51446;53.850;10.662;2023-06-24T10:59:20;5.50;;;2.07;;
64932;SDS011;51446;53.850;10.662;2023-06-24T11:01:52;4.63;;;1.90;;
64932;SDS011;51446;53.850;10.662;2023-06-24T11:04:18;6.93;;;2.30;;
64932;SDS011;51446;53.850;10.662;2023-06-24T11:06:56;5.37;;;2.17;;
64932;SDS011;51446;53.850;10.662;2023-06-24T11:09:23;4.90;;;2.40;;
64932;SDS011;51446;53.850;10.662;2023-06-24T11:11:48;3.40;;;2.20;;
64932;SDS011;51446;53.850;10.662;2023-06-24T11:14:15;4.60;;;2.23;;
64932;SDS011;51446;53.850;10.662;2023-06-24T11:16:41;6.05;;;2.53;;
64932;SDS011;51446;53.850;10.662;2023-06-24T11:19:06;3.70;;;2.30;;
64932;SDS011;51446;53.850;10.662;2023-06-24T11:21:31;4.50;;;2.63;;
64932;SDS011;51446;53.850;10.662;2023-06-24T11:24:00;5.50;;;2.58;;
64932;SDS011;51446;53.850;10.662;2023-06-24T11:26:27;5.57;;;2.70;;
64932;SDS011;51446;53.850;10.662;2023-06-24T11:28:53;5.35;;;2.55;;
64932;SDS011;51446;53.850;10.662;2023-06-24T11:31:18;4.80;;;2.33;;
64932;SDS011;51446;53.850;10.662;2023-06-24T11:33:48;5.00;;;2.30;;
64932;SDS011;51446;53.850;10.662;2023-06-24T11:36:16;4.82;;;2.90;;
64932;SDS011;51446;53.850;10.662;2023-06-24T11:38:42;5.80;;;2.42;;
64932;SDS011;51446;53.850;10.662;2023-06-24T11:41:08;3.37;;;2.00;;
64932;SDS011;51446;53.850;10.662;2023-06-24T11:43:33;5.37;;;2.30;;
64932;SDS011;51446;53.850;10.662;2023-06-24T11:45:59;6.13;;;2.20;;
64932;SDS011;51446;53.850;10.662;2023-06-24T11:48:27;5.87;;;2.73;;
64932;SDS011;51446;53.850;10.662;2023-06-24T11:51:03;6.70;;;2.75;;
64932;SDS011;51446;53.850;10.662;2023-06-24T11:53:29;4.53;;;2.40;;
64932;SDS011;51446;53.850;10.662;2023-06-24T11:55:56;4.73;;;2.50;;
64932;SDS011;51446;53.850;10.662;2023-06-24T11:58:21;7.43;;;2.50;;
64932;SDS011;51446;53.850;10.662;2023-06-24T12:00:48;6.57;;;2.60;;
64932;SDS011;51446;53.850;10.662;2023-06-24T12:03:13;5.20;;;2.90;;
64932;SDS011;51446;53.850;10.662;2023-06-24T12:05:39;6.03;;;2.50;;
64932;SDS011;51446;53.850;10.662;2023-06-24T12:08:10;4.88;;;2.10;;
64932;SDS011;51446;53.850;10.662;2023-06-24T12:10:37;3.55;;;2.40;;
64932;SDS011;51446;53.850;10.662;2023-06-24T12:13:04;4.25;;;2.30;;
64932;SDS011;51446;53.850;10.662;2023-06-24T12:15:31;3.93;;;2.87;;
64932;SDS011;51446;53.850;10.662;2023-06-24T12:17:56;5.80;;;3.00;;
64932;SDS011;51446;53.850;10.662;2023-06-24T12:20:23;4.63;;;2.40;;
64932;SDS011;51446;53.850;10.662;2023-06-24T12:22:49;4.82;;;2.45;;
64932;SDS011;51446;53.850;10.662;2023-06-24T12:25:15;4.57;;;2.63;;
64932;SDS011;51446;53.850;10.662;2023-06-24T12:27:41;8.87;;;2.83;;
64932;SDS011;51446;53.850;10.662;2023-06-24T12:30:08;4.45;;;3.00;;
64932;SDS011;51446;53.850;10.662;2023-06-24T12:32:34;4.80;;;2.50;;
64932;SDS011;51446;53.850;10.662;2023-06-24T12:35:00;6.03;;;2.83;;
64932;SDS011;51446;53.850;10.662;2023-06-24T12:37:29;8.27;;;2.97;;
64932;SDS011;51446;53.850;10.662;2023-06-24T12:39:56;4.40;;;2.58;;
64932;SDS011;51446;53.850;10.662;2023-06-24T12:42:21;5.00;;;2.50;;
64932;SDS011;51446;53.850;10.662;2023-06-24T12:44:46;7.67;;;2.60;;
64932;SDS011;51446;53.850;10.662;2023-06-24T12:47:12;6.50;;;2.80;;
64932;SDS011;51446;53.850;10.662;2023-06-24T12:49:37;4.60;;;2.47;;
64932;SDS011;51446;53.850;10.662;2023-06-24T12:52:02;6.87;;;3.10;;
64932;SDS011;51446;53.850;10.662;2023-06-24T12:54:27;7.53;;;2.40;;
64932;SDS011;51446;53.850;10.662;2023-06-24T12:56:53;5.77;;;2.97;;
64932;SDS011;51446;53.850;10.662;2023-06-24T12:59:18;4.40;;;2.33;;
64932;SDS011;51446;53.850;10.662;2023-06-24T13:01:43;5.13;;;2.47;;
64932;SDS011;51446;53.850;10.662;2023-06-24T13:04:10;3.95;;;2.60;;
64932;SDS011;51446;53.850;10.662;2023-06-24T13:06:35;5.50;;;2.70;;
64932;SDS011;51446;53.850;10.662;2023-06-24T13:09:01;4.83;;;2.77;;
64932;SDS011;51446;53.850;10.662;2023-06-24T13:11:26;5.17;;;2.73;;
64932;SDS011;51446;53.850;10.662;2023-06-24T13:13:51;3.10;;;2.27;;
64932;SDS011;51446;53.850;10.662;2023-06-24T13:16:17;3.73;;;2.80;;
64932;SDS011;51446;53.850;10.662;2023-06-24T13:18:42;3.17;;;2.50;;
64932;SDS011;51446;53.850;10.662;2023-06-24T13:21:07;6.60;;;3.07;;
64932;SDS011;51446;53.850;10.662;2023-06-24T13:23:32;5.67;;;2.73;;
64932;SDS011;51446;53.850;10.662;2023-06-24T13:25:58;3.80;;;2.42;;
64932;SDS011;51446;53.850;10.662;2023-06-24T13:28:24;6.67;;;2.67;;
64932;SDS011;51446;53.850;10.662;2023-06-24T13:30:49;3.43;;;2.53;;
64932;SDS011;51446;53.850;10.662;2023-06-24T13:33:15;4.45;;;2.70;;
64932;SDS011;51446;53.850;10.662;2023-06-24T13:35:40;7.97;;;2.30;;
64932;SDS011;51446;53.850;10.662;2023-06-24T13:38:05;5.03;;;2.70;;
64932;SDS011;51446;53.850;10.662;2023-06-24T13:40:32;5.05;;;2.22;;
64932;SDS011;51446;53.850;10.662;2023-06-24T13:42:58;3.53;;;2.23;;
64932;SDS011;51446;53.850;10.662;2023-06-24T13:45:23;6.23;;;2.70;;
64932;SDS011;51446;53.850;10.662;2023-06-24T13:47:48;5.57;;;2.10;;
64932;SDS011;51446;53.850;10.662;2023-06-24T13:50:14;4.23;;;2.43;;
64932;SDS011;51446;53.850;10.662;2023-06-24T13:52:39;3.47;;;2.40;;
64932;SDS011;51446;53.850;10.662;2023-06-24T13:55:05;5.90;;;2.30;;
64932;SDS011;51446;53.850;10.662;2023-06-24T13:57:31;4.82;;;2.40;;
64932;SDS011;51446;53.850;10.662;2023-06-24T13:59:56;4.67;;;2.57;;
64932;SDS011;51446;53.850;10.662;2023-06-24T14:02:21;3.90;;;2.17;;
64932;SDS011;51446;53.850;10.662;2023-06-24T14:04:46;3.70;;;2.53;;
64932;SDS011;51446;53.850;10.662;2023-06-24T14:07:12;5.63;;;2.60;;
64932;SDS011;51446;53.850;10.662;2023-06-24T14:09:38;5.10;;;2.67;;
64932;SDS011;51446;53.850;10.662;2023-06-24T14:12:04;5.10;;;2.72;;
64932;SDS011;51446;53.850;10.662;2023-06-24T14:14:30;4.55;;;2.78;;
64932;SDS011;51446;53.850;10.662;2023-06-24T14:16:55;4.40;;;2.77;;
64932;SDS011;51446;53.850;10.662;2023-06-24T14:19:21;9.23;;;2.80;;
64932;SDS011;51446;53.850;10.662;2023-06-24T14:21:46;5.93;;;2.70;;
64932;SDS011;51446;53.850;10.662;2023-06-24T14:24:11;7.30;;;2.90;;
64932;SDS011;51446;53.850;10.662;2023-06-24T14:26:37;4.23;;;3.20;;
64932;SDS011;51446;53.850;10.662;2023-06-24T14:29:02;7.00;;;2.78;;
64932;SDS011;51446;53.850;10.662;2023-06-24T14:31:28;6.57;;;3.03;;
64932;SDS011;51446;53.850;10.662;2023-06-24T14:33:53;5.57;;;3.00;;
64932;SDS011;51446;53.850;10.662;2023-06-24T14:36:19;5.63;;;3.50;;
64932;SDS011;51446;53.850;10.662;2023-06-24T14:38:44;4.00;;;2.53;;
64932;SDS011;51446;53.850;10.662;2023-06-24T14:41:10;6.00;;;3.50;;
64932;SDS011;51446;53.850;10.662;2023-06-24T14:43:35;5.05;;;3.28;;
64932;SDS011;51446;53.850;10.662;2023-06-24T14:46:00;5.97;;;3.70;;
64932;SDS011;51446;53.850;10.662;2023-06-24T14:48:26;6.77;;;3.20;;
64932;SDS011;51446;53.850;10.662;2023-06-24T14:50:51;5.43;;;3.37;;
64932;SDS011;51446;53.850;10.662;2023-06-24T14:53:16;6.67;;;3.93;;